createdAt,value
2023-02-17T00:01:26.996Z,7.90
2023-02-17T00:03:54.087Z,7.90
2023-02-17T00:06:24.165Z,8.00
2023-02-17T00:08:51.433Z,8.00
2023-02-17T00:11:19.259Z,8.00
2023-02-17T00:13:46.816Z,8.00
2023-02-17T00:16:18.215Z,8.00
2023-02-17T00:18:45.628Z,8.10
2023-02-17T00:21:14.639Z,8.10
2023-02-17T00:23:43.295Z,8.20
2023-02-17T00:26:10.848Z,8.10
2023-02-17T00:28:38.373Z,8.10
2023-02-17T00:31:09.881Z,8.10
2023-02-17T00:33:37.373Z,8.10
2023-02-17T00:36:12.008Z,8.10
2023-02-17T00:38:39.045Z,8.10
2023-02-17T00:41:05.900Z,8.10
2023-02-17T00:43:32.886Z,8.10
2023-02-17T00:45:59.826Z,8.20
2023-02-17T00:48:26.778Z,8.20
2023-02-17T00:50:53.651Z,8.20
2023-02-17T00:53:20.523Z,8.20
2023-02-17T00:55:47.723Z,8.20
2023-02-17T00:58:14.718Z,8.20
2023-02-17T01:00:42.192Z,8.20
2023-02-17T01:03:09.238Z,8.20
2023-02-17T01:05:42.427Z,8.20
2023-02-17T01:08:09.789Z,8.10
2023-02-17T01:10:40.869Z,8.20
2023-02-17T01:13:09.700Z,8.10
2023-02-17T01:15:41.570Z,8.10
2023-02-17T01:18:08.653Z,8.10
2023-02-17T01:20:37.317Z,8.10
2023-02-17T01:23:06.205Z,8.10
2023-02-17T01:25:37.216Z,8.10
2023-02-17T01:28:04.338Z,8.00
2023-02-17T01:30:31.251Z,8.00
2023-02-17T01:32:58.174Z,8.00
2023-02-17T01:35:25.078Z,8.00
2023-02-17T01:37:52.027Z,8.00
2023-02-17T01:40:19.555Z,8.00
2023-02-17T01:42:46.602Z,8.00
2023-02-17T01:45:19.522Z,8.10
2023-02-17T01:48:10.713Z,8.10
2023-02-17T01:50:44.180Z,8.10
2023-02-17T01:53:13.289Z,8.10
2023-02-17T01:55:41.745Z,8.10
2023-02-17T01:58:11.946Z,8.10
2023-02-17T02:00:39.417Z,8.10
2023-02-17T02:03:10.022Z,8.10
2023-02-17T02:05:39.777Z,8.00
2023-02-17T02:08:07.045Z,8.10
2023-02-17T02:10:34.349Z,8.10
2023-02-17T02:13:01.301Z,8.20
2023-02-17T02:15:55.396Z,8.10
2023-02-17T02:18:31.358Z,8.10
2023-02-17T02:21:45.677Z,8.20
2023-02-17T02:24:33.164Z,8.20
2023-02-17T02:27:30.587Z,8.30
2023-02-17T02:30:23.775Z,8.30
2023-02-17T02:33:30.311Z,8.30
2023-02-17T02:36:08.308Z,8.30
2023-02-17T02:39:01.549Z,8.30
2023-02-17T02:41:38.805Z,8.30
2023-02-17T02:44:12.988Z,8.30
2023-02-17T02:46:40.045Z,8.30
2023-02-17T02:49:07.884Z,8.40
2023-02-17T02:52:04.301Z,8.40
2023-02-17T02:54:47.680Z,8.40
2023-02-17T02:57:37.128Z,8.40
2023-02-17T03:00:11.817Z,8.40
2023-02-17T03:02:53.617Z,8.40
2023-02-17T03:06:15.613Z,8.40
2023-02-17T03:08:51.844Z,8.30
2023-02-17T03:11:34.958Z,8.40
2023-02-17T03:14:06.213Z,8.30
2023-02-17T03:16:34.086Z,8.40
2023-02-17T03:19:01.024Z,8.30
2023-02-17T03:21:54.283Z,8.30
2023-02-17T03:24:21.154Z,8.40
2023-02-17T03:26:48.205Z,8.30
2023-02-17T03:29:15.198Z,8.30
2023-02-17T03:31:42.402Z,8.30
2023-02-17T03:34:09.416Z,8.30
2023-02-17T03:36:36.312Z,8.30
2023-02-17T03:39:03.362Z,8.30
2023-02-17T03:41:30.276Z,8.30
2023-02-17T03:43:57.166Z,8.30
2023-02-17T03:46:24.050Z,8.30
2023-02-17T03:48:50.887Z,8.40
2023-02-17T03:51:20.675Z,8.40
2023-02-17T03:53:48.760Z,8.50
2023-02-17T03:56:17.102Z,8.50
2023-02-17T03:58:44.214Z,8.60
2023-02-17T04:01:12.721Z,8.50
2023-02-17T04:03:40.161Z,8.60
2023-02-17T04:06:07.811Z,8.60
2023-02-17T04:08:35.179Z,8.50
2023-02-17T04:11:03.811Z,8.50
2023-02-17T04:13:31.221Z,8.40
2023-02-17T04:15:59.026Z,8.40
2023-02-17T04:18:25.949Z,8.40
2023-02-17T04:20:54.194Z,8.40
2023-02-17T04:23:21.039Z,8.50
2023-02-17T04:25:48.367Z,8.50
2023-02-17T04:28:16.029Z,8.50
2023-02-17T04:30:48.269Z,8.50
2023-02-17T04:33:16.108Z,8.60
2023-02-17T04:35:42.989Z,8.50
2023-02-17T04:38:10.880Z,8.60
2023-02-17T04:40:38.625Z,8.50
2023-02-17T04:43:05.874Z,8.50
2023-02-17T04:45:33.802Z,8.50
2023-02-17T04:48:00.695Z,8.50
2023-02-17T04:50:27.907Z,8.50
2023-02-17T04:52:55.203Z,8.60
2023-02-17T04:55:22.075Z,8.60
2023-02-17T04:57:48.962Z,8.50
2023-02-17T05:00:15.957Z,8.60
2023-02-17T05:02:42.926Z,8.60
2023-02-17T05:05:10.298Z,8.50
2023-02-17T05:07:41.460Z,8.60
2023-02-17T05:10:09.633Z,8.60
2023-02-17T05:12:36.629Z,8.60
2023-02-17T05:15:04.558Z,8.60
2023-02-17T05:17:31.564Z,8.50
2023-02-17T05:20:00.042Z,8.50
2023-02-17T05:22:27.561Z,8.50
2023-02-17T05:24:54.714Z,8.50
2023-02-17T05:27:21.839Z,8.50
2023-02-17T05:29:48.813Z,8.40
2023-02-17T05:32:16.208Z,8.40
2023-02-17T05:34:45.809Z,8.40
2023-02-17T05:37:15.432Z,8.40
2023-02-17T05:39:43.254Z,8.40
2023-02-17T05:42:10.126Z,8.40
2023-02-17T05:44:36.992Z,8.40
2023-02-17T05:47:04.038Z,8.30
2023-02-17T05:49:30.984Z,8.30
2023-02-17T05:51:57.935Z,8.30
2023-02-17T05:54:24.823Z,8.20
2023-02-17T05:56:51.771Z,8.20
2023-02-17T05:59:18.737Z,8.20
2023-02-17T06:01:45.665Z,8.20
2023-02-17T06:04:12.493Z,8.20
2023-02-17T06:06:39.398Z,8.20
2023-02-17T06:09:06.291Z,8.20
2023-02-17T06:11:33.793Z,8.30
2023-02-17T06:14:01.141Z,8.30
2023-02-17T06:16:28.136Z,8.20
2023-02-17T06:18:54.962Z,8.30
2023-02-17T06:21:21.832Z,8.20
2023-02-17T06:23:48.717Z,8.20
2023-02-17T06:26:15.696Z,8.30
2023-02-17T06:28:42.564Z,8.20
2023-02-17T06:31:09.589Z,8.30
2023-02-17T06:33:36.541Z,8.20
2023-02-17T06:36:03.844Z,8.20
2023-02-17T06:38:31.013Z,8.30
2023-02-17T06:40:57.935Z,8.30
2023-02-17T06:43:24.814Z,8.30
2023-02-17T06:45:51.758Z,8.30
2023-02-17T06:48:18.744Z,8.40
2023-02-17T06:50:45.623Z,8.40
2023-02-17T06:53:12.530Z,8.40
2023-02-17T06:55:39.653Z,8.40
2023-02-17T06:58:08.357Z,8.40
2023-02-17T07:00:35.373Z,8.50
2023-02-17T07:03:02.306Z,8.50
2023-02-17T07:05:29.329Z,8.50
2023-02-17T07:07:58.114Z,8.50
2023-02-17T07:10:24.990Z,8.50
2023-02-17T07:12:52.110Z,8.60
2023-02-17T07:15:19.091Z,8.60
2023-02-17T07:17:46.067Z,8.60
2023-02-17T07:20:13.231Z,8.60
2023-02-17T07:22:40.334Z,8.60
2023-02-17T07:25:08.016Z,8.60
2023-02-17T07:27:38.300Z,8.60
2023-02-17T07:30:07.400Z,8.60
2023-02-17T07:32:35.611Z,8.70
2023-02-17T07:35:02.660Z,8.60
2023-02-17T07:37:29.712Z,8.70
2023-02-17T07:39:57.376Z,8.70
2023-02-17T07:42:24.463Z,8.70
2023-02-17T07:44:51.913Z,8.70
2023-02-17T07:47:19.025Z,8.70
2023-02-17T07:49:45.899Z,8.70
2023-02-17T07:52:12.764Z,8.80
2023-02-17T07:54:39.603Z,8.80
2023-02-17T07:57:06.501Z,8.80
2023-02-17T07:59:33.350Z,8.90
2023-02-17T08:02:00.273Z,8.90
2023-02-17T08:04:27.467Z,8.90
2023-02-17T08:06:54.315Z,8.90
2023-02-17T08:09:39.706Z,8.90
2023-02-17T08:12:28.365Z,8.80
2023-02-17T08:14:58.033Z,8.80
2023-02-17T08:17:24.917Z,8.80
2023-02-17T08:19:51.777Z,8.90
2023-02-17T08:22:18.727Z,8.80
2023-02-17T08:24:45.764Z,8.80
2023-02-17T08:27:27.976Z,8.90
2023-02-17T08:29:55.813Z,8.90
2023-02-17T08:32:22.878Z,8.90
2023-02-17T08:34:49.976Z,8.80
2023-02-17T08:37:16.946Z,8.90
2023-02-17T08:39:43.839Z,8.80
2023-02-17T08:42:12.124Z,8.90
2023-02-17T08:44:39.313Z,9.00
2023-02-17T08:47:06.903Z,9.00
2023-02-17T08:49:33.888Z,9.10
2023-02-17T08:52:01.057Z,9.10
2023-02-17T08:54:28.613Z,9.10
2023-02-17T08:56:55.777Z,9.10
2023-02-17T08:59:22.722Z,9.20
2023-02-17T09:01:49.671Z,9.20
2023-02-17T09:04:17.296Z,9.20
2023-02-17T09:06:47.612Z,9.20
2023-02-17T09:09:17.163Z,9.30
2023-02-17T09:11:44.607Z,9.30
2023-02-17T09:14:12.172Z,9.30
2023-02-17T09:16:41.096Z,9.40
2023-02-17T09:19:08.473Z,9.40
2023-02-17T09:21:35.337Z,9.40
2023-02-17T09:24:02.267Z,9.40
2023-02-17T09:26:29.283Z,9.40
2023-02-17T09:28:57.948Z,9.30
2023-02-17T09:31:26.725Z,9.40
2023-02-17T09:33:53.720Z,9.30
2023-02-17T09:36:24.362Z,9.30
2023-02-17T09:38:51.852Z,9.30
2023-02-17T09:41:21.590Z,9.30
2023-02-17T09:43:49.597Z,9.40
2023-02-17T09:46:24.401Z,9.40
2023-02-17T09:48:56.885Z,9.40
2023-02-17T09:51:30.615Z,9.40
2023-02-17T09:54:13.416Z,9.40
2023-02-17T09:56:43.136Z,9.30
2023-02-17T09:59:42.586Z,9.30
2023-02-17T10:02:19.365Z,9.30
2023-02-17T10:04:48.848Z,9.30
2023-02-17T10:07:25.538Z,9.40
2023-02-17T10:09:59.185Z,9.40
2023-02-17T10:12:37.251Z,9.50
2023-02-17T10:15:10.554Z,9.50
2023-02-17T10:18:01.417Z,9.50
2023-02-17T10:20:40.081Z,9.60
2023-02-17T10:23:18.670Z,9.60
2023-02-17T10:25:56.879Z,9.70
2023-02-17T10:28:50.705Z,9.80
2023-02-17T10:31:46.354Z,9.80
2023-02-17T10:34:37.490Z,9.90
2023-02-17T10:37:42.324Z,10.00
2023-02-17T10:40:29.133Z,10.20
2023-02-17T10:43:02.272Z,10.30
2023-02-17T10:45:35.762Z,10.40
2023-02-17T10:48:09.364Z,10.50
2023-02-17T10:50:38.133Z,10.50
2023-02-17T10:53:14.361Z,10.60
2023-02-17T10:55:57.872Z,10.60
2023-02-17T10:58:43.278Z,10.60
2023-02-17T11:01:10.772Z,10.70
2023-02-17T11:03:40.968Z,10.70
2023-02-17T11:06:23.636Z,10.80
2023-02-17T11:08:59.536Z,10.90
2023-02-17T11:11:29.416Z,10.90
2023-02-17T11:14:08.100Z,11.10
2023-02-17T11:16:47.420Z,11.30
2023-02-17T11:19:26.297Z,11.40
2023-02-17T11:21:55.279Z,11.30
2023-02-17T11:24:22.965Z,11.30
2023-02-17T11:27:05.181Z,11.20
2023-02-17T11:29:33.236Z,11.20
2023-02-17T11:32:12.454Z,11.10
2023-02-17T11:34:42.062Z,11.10
2023-02-17T11:37:12.034Z,11.00
2023-02-17T11:39:44.892Z,11.00
2023-02-17T11:42:26.563Z,11.00
2023-02-17T11:44:56.871Z,10.90
2023-02-17T11:47:32.556Z,10.90
2023-02-17T11:50:39.056Z,10.90
2023-02-17T11:53:22.157Z,10.80
2023-02-17T11:55:54.528Z,10.70
2023-02-17T11:58:46.072Z,10.60
2023-02-17T12:01:21.735Z,10.60
2023-02-17T12:04:10.103Z,10.50
2023-02-17T12:06:58.347Z,10.50
2023-02-17T12:10:05.669Z,10.50
2023-02-17T12:12:51.039Z,10.50
2023-02-17T12:15:39.061Z,10.50
2023-02-17T12:18:09.027Z,10.50
2023-02-17T12:20:49.931Z,10.60
2023-02-17T12:23:22.781Z,10.60
2023-02-17T12:25:54.294Z,10.60
2023-02-17T12:28:45.457Z,10.70
2023-02-17T12:31:33.591Z,10.80
2023-02-17T12:34:06.788Z,10.90
2023-02-17T12:36:42.004Z,10.90
2023-02-17T12:39:45.828Z,10.90
2023-02-17T12:42:21.578Z,10.80
2023-02-17T12:44:54.056Z,10.80
2023-02-17T12:47:44.972Z,10.80
2023-02-17T12:50:25.802Z,10.90
2023-02-17T12:52:56.786Z,10.90
2023-02-17T12:55:30.699Z,11.00
2023-02-17T12:58:03.846Z,11.10
2023-02-17T13:00:47.111Z,11.10
2023-02-17T13:03:14.024Z,11.10
2023-02-17T13:06:11.426Z,11.10
2023-02-17T13:08:56.107Z,11.10
2023-02-17T13:11:33.851Z,11.00
2023-02-17T13:14:27.091Z,11.10
2023-02-17T13:16:54.586Z,11.00
2023-02-17T13:19:30.043Z,11.10
2023-02-17T13:21:59.894Z,11.10
2023-02-17T13:24:51.949Z,11.10
2023-02-17T13:27:27.755Z,11.20
2023-02-17T13:30:06.692Z,11.20
2023-02-17T13:32:36.417Z,11.20
2023-02-17T13:35:30.668Z,11.20
2023-02-17T13:37:57.651Z,11.30
2023-02-17T13:40:24.474Z,11.30
2023-02-17T13:42:54.432Z,11.30
2023-02-17T13:45:33.541Z,11.40
2023-02-17T13:48:43.350Z,11.40
2023-02-17T13:51:25.914Z,11.40
2023-02-17T13:53:52.969Z,11.40
2023-02-17T13:56:31.033Z,11.40
2023-02-17T13:59:27.318Z,11.40
2023-02-17T14:01:54.998Z,11.40
2023-02-17T14:04:31.289Z,11.40
2023-02-17T14:07:04.975Z,11.40
2023-02-17T14:09:34.573Z,11.40
2023-02-17T14:12:03.829Z,11.40
2023-02-17T14:14:36.625Z,11.40
2023-02-17T14:17:04.930Z,11.50
2023-02-17T14:19:46.086Z,11.50
2023-02-17T14:22:33.780Z,11.50
2023-02-17T14:25:07.827Z,11.50
2023-02-17T14:27:51.528Z,11.50
2023-02-17T14:30:39.414Z,11.40
2023-02-17T14:33:23.838Z,11.30
2023-02-17T14:36:00.432Z,11.30
2023-02-17T14:38:29.321Z,11.30
2023-02-17T14:40:56.377Z,11.30
2023-02-17T14:43:24.355Z,11.30
2023-02-17T14:45:51.838Z,11.30
2023-02-17T14:48:20.378Z,11.30
2023-02-17T14:50:48.441Z,11.30
2023-02-17T14:53:26.150Z,11.30
2023-02-17T14:56:19.131Z,11.30
2023-02-17T14:58:46.552Z,11.30
2023-02-17T15:01:15.730Z,11.30
2023-02-17T15:03:42.884Z,11.30
2023-02-17T15:06:22.328Z,11.40
2023-02-17T15:08:49.714Z,11.40
2023-02-17T15:11:37.391Z,11.40
2023-02-17T15:14:05.831Z,11.50
2023-02-17T15:16:32.859Z,11.60
2023-02-17T15:18:59.800Z,11.60
2023-02-17T15:21:37.344Z,11.60
2023-02-17T15:24:20.175Z,11.60
2023-02-17T15:26:48.064Z,11.60
2023-02-17T15:29:27.485Z,11.50
2023-02-17T15:31:56.693Z,11.50
2023-02-17T15:34:31.711Z,11.40
2023-02-17T15:37:00.102Z,11.40
2023-02-17T15:39:27.454Z,11.40
2023-02-17T15:41:56.203Z,11.40
2023-02-17T15:44:26.500Z,11.40
2023-02-17T15:46:55.557Z,11.40
2023-02-17T15:49:22.831Z,11.40
2023-02-17T15:51:49.750Z,11.40
2023-02-17T15:54:19.302Z,11.40
2023-02-17T15:56:52.353Z,11.30
2023-02-17T15:59:26.579Z,11.30
2023-02-17T16:01:57.553Z,11.30
2023-02-17T16:04:24.490Z,11.30
2023-02-17T16:06:51.422Z,11.30
2023-02-17T16:09:20.245Z,11.30
2023-02-17T16:11:50.397Z,11.30
2023-02-17T16:14:37.796Z,11.30
2023-02-17T16:17:12.554Z,11.20
2023-02-17T16:19:39.450Z,11.20
2023-02-17T16:22:06.542Z,11.30
2023-02-17T16:24:33.426Z,11.30
2023-02-17T16:27:01.017Z,11.20
2023-02-17T16:29:27.967Z,11.20
2023-02-17T16:31:55.958Z,11.20
2023-02-17T16:34:25.712Z,11.20
2023-02-17T16:37:02.231Z,11.10
2023-02-17T16:39:29.448Z,11.10
2023-02-17T16:41:56.321Z,10.90
2023-02-17T16:44:23.787Z,10.90
2023-02-17T16:46:52.872Z,10.90
2023-02-17T16:49:25.900Z,10.80
2023-02-17T16:51:52.870Z,10.80
2023-02-17T16:54:19.867Z,10.80
2023-02-17T16:56:49.579Z,10.80
2023-02-17T16:59:19.465Z,10.80
2023-02-17T17:01:47.467Z,10.80
2023-02-17T17:04:15.605Z,10.80
2023-02-17T17:06:45.789Z,10.80
2023-02-17T17:09:22.760Z,10.90
2023-02-17T17:11:50.318Z,10.90
2023-02-17T17:14:17.132Z,10.90
2023-02-17T17:16:53.008Z,10.90
2023-02-17T17:19:19.784Z,10.90
2023-02-17T17:21:48.047Z,10.90
2023-02-17T17:24:14.992Z,10.90
2023-02-17T17:26:45.567Z,10.90
2023-02-17T17:29:14.822Z,10.90
2023-02-17T17:31:41.852Z,10.90
2023-02-17T17:34:08.829Z,11.00
2023-02-17T17:36:42.732Z,11.00
2023-02-17T17:39:16.431Z,11.00
2023-02-17T17:41:43.471Z,11.00
2023-02-17T17:44:10.884Z,10.90
2023-02-17T17:46:39.047Z,10.90
2023-02-17T17:49:08.825Z,10.90
2023-02-17T17:51:36.589Z,11.00
2023-02-17T17:54:05.270Z,11.00
2023-02-17T17:56:35.670Z,11.10
2023-02-17T17:59:03.726Z,11.00
2023-02-17T18:01:30.992Z,11.10
2023-02-17T18:03:59.494Z,11.20
2023-02-17T18:06:30.726Z,11.10
2023-02-17T18:09:02.731Z,11.20
2023-02-17T18:11:31.393Z,11.10
2023-02-17T18:14:01.755Z,11.10
2023-02-17T18:16:30.093Z,11.20
2023-02-17T18:18:59.383Z,11.20
2023-02-17T18:21:26.249Z,11.20
2023-02-17T18:23:53.986Z,11.20
2023-02-17T18:26:20.972Z,11.10
2023-02-17T18:28:47.704Z,11.10
2023-02-17T18:31:16.035Z,11.10
2023-02-17T18:33:43.208Z,11.10
2023-02-17T18:36:16.458Z,11.20
2023-02-17T18:38:44.229Z,11.20
2023-02-17T18:41:29.315Z,11.20
2023-02-17T18:43:58.078Z,11.10
2023-02-17T18:46:26.896Z,11.10
2023-02-17T18:48:54.623Z,11.10
2023-02-17T18:51:23.343Z,11.00
2023-02-17T18:53:58.576Z,11.10
2023-02-17T18:56:28.803Z,11.10
2023-02-17T18:58:56.309Z,11.10
2023-02-17T19:01:28.913Z,11.10
2023-02-17T19:03:56.487Z,11.00
2023-02-17T19:06:29.809Z,11.10
2023-02-17T19:08:56.942Z,11.00
2023-02-17T19:11:25.064Z,11.00
2023-02-17T19:13:52.541Z,11.00
2023-02-17T19:16:28.585Z,10.90
2023-02-17T19:18:56.554Z,10.90
2023-02-17T19:21:24.301Z,10.80
2023-02-17T19:23:51.880Z,10.70
2023-02-17T19:26:19.632Z,10.70
2023-02-17T19:28:47.044Z,10.60
2023-02-17T19:31:17.203Z,10.60
2023-02-17T19:33:45.819Z,10.50
2023-02-17T19:36:15.584Z,10.40
2023-02-17T19:38:42.837Z,10.30
2023-02-17T19:41:11.648Z,10.20
2023-02-17T19:43:39.006Z,10.20
2023-02-17T19:46:06.281Z,10.00
2023-02-17T19:48:34.500Z,10.00
2023-02-17T19:51:04.503Z,9.90
2023-02-17T19:53:33.206Z,9.80
2023-02-17T19:56:12.084Z,9.80
2023-02-17T19:58:40.336Z,9.80
2023-02-17T20:01:21.061Z,9.70
2023-02-17T20:03:47.970Z,9.70
2023-02-17T20:06:23.760Z,9.60
2023-02-17T20:08:57.966Z,9.60
2023-02-17T20:11:25.526Z,9.50
2023-02-17T20:13:52.855Z,9.50
2023-02-17T20:16:19.848Z,9.50
2023-02-17T20:18:49.004Z,9.50
2023-02-17T20:21:21.904Z,9.50
2023-02-17T20:23:48.977Z,9.50
2023-02-17T20:26:19.886Z,9.40
2023-02-17T20:28:47.177Z,9.40
2023-02-17T20:31:14.642Z,9.40
2023-02-17T20:33:41.734Z,9.40
2023-02-17T20:36:09.815Z,9.50
2023-02-17T20:38:39.740Z,9.60
2023-02-17T20:41:14.063Z,9.60
2023-02-17T20:43:41.046Z,9.60
2023-02-17T20:46:11.724Z,9.50
2023-02-17T20:48:38.717Z,9.50
2023-02-17T20:51:05.838Z,9.60
2023-02-17T20:53:32.752Z,9.60
2023-02-17T20:55:59.744Z,9.60
2023-02-17T20:58:26.605Z,9.60
2023-02-17T21:00:53.465Z,9.70
2023-02-17T21:03:20.419Z,9.60
2023-02-17T21:05:47.296Z,9.70
2023-02-17T21:08:14.208Z,9.70
2023-02-17T21:10:41.184Z,9.80
2023-02-17T21:13:08.014Z,9.70
2023-02-17T21:15:34.969Z,9.80
2023-02-17T21:18:01.876Z,9.80
2023-02-17T21:20:28.759Z,9.80
2023-02-17T21:22:55.583Z,9.80
2023-02-17T21:25:22.664Z,9.80
2023-02-17T21:27:49.546Z,9.90
2023-02-17T21:30:16.533Z,9.90
2023-02-17T21:32:43.673Z,9.80
2023-02-17T21:35:11.325Z,9.90
2023-02-17T21:37:39.101Z,9.90
2023-02-17T21:40:26.050Z,9.80
2023-02-17T21:43:11.676Z,9.80
2023-02-17T21:45:39.480Z,9.80
2023-02-17T21:48:07.582Z,9.80
2023-02-17T21:50:34.510Z,9.70
2023-02-17T21:53:01.490Z,9.70
2023-02-17T21:55:28.393Z,9.70
2023-02-17T21:57:55.353Z,9.70
2023-02-17T22:00:22.322Z,9.70
2023-02-17T22:02:49.198Z,9.70
2023-02-17T22:05:17.029Z,9.70
2023-02-17T22:07:47.294Z,9.70
2023-02-17T22:10:14.189Z,9.70
2023-02-17T22:12:41.069Z,9.70
2023-02-17T22:15:08.649Z,9.70
2023-02-17T22:17:35.617Z,9.70
2023-02-17T22:20:03.497Z,9.70
2023-02-17T22:22:30.808Z,9.70
2023-02-17T22:24:57.706Z,9.70
2023-02-17T22:27:24.620Z,9.80
2023-02-17T22:29:51.659Z,9.80
2023-02-17T22:32:19.230Z,9.80
2023-02-17T22:34:46.109Z,9.80
2023-02-17T22:37:12.993Z,9.80
2023-02-17T22:39:39.844Z,9.70
2023-02-17T22:42:06.938Z,9.80
2023-02-17T22:44:33.851Z,9.70
2023-02-17T22:47:00.679Z,9.70
2023-02-17T22:49:28.053Z,9.80
2023-02-17T22:51:54.900Z,9.80
2023-02-17T22:54:21.806Z,9.80
2023-02-17T22:56:48.673Z,9.80
2023-02-17T22:59:15.633Z,9.80
2023-02-17T23:01:42.565Z,9.80
2023-02-17T23:04:13.583Z,9.80
2023-02-17T23:06:40.731Z,9.80
2023-02-17T23:09:09.814Z,9.80
2023-02-17T23:11:50.825Z,9.80
2023-02-17T23:14:22.756Z,9.80
2023-02-17T23:16:50.396Z,9.80
2023-02-17T23:19:19.839Z,9.90
2023-02-17T23:21:49.136Z,9.90
2023-02-17T23:24:16.925Z,9.90
2023-02-17T23:26:44.241Z,9.90
2023-02-17T23:29:11.645Z,9.90
2023-02-17T23:31:38.911Z,9.90
2023-02-17T23:34:07.079Z,9.80
2023-02-17T23:36:34.154Z,9.80
2023-02-17T23:39:01.762Z,9.80
2023-02-17T23:41:28.707Z,9.90
2023-02-17T23:43:56.168Z,9.80
2023-02-17T23:46:23.469Z,9.80
2023-02-17T23:48:50.414Z,9.80
2023-02-17T23:51:19.247Z,9.80
2023-02-17T23:53:46.463Z,9.80
2023-02-17T23:56:22.615Z,9.80
2023-02-17T23:58:49.493Z,9.80
